createdAt,value
2018-04-30T00:01:00.677Z,3.80
2018-04-30T00:03:28.037Z,3.43
2018-04-30T00:05:55.424Z,3.77
2018-04-30T00:08:22.826Z,4.20
2018-04-30T00:10:50.241Z,4.50
2018-04-30T00:13:17.620Z,3.37
2018-04-30T00:15:45.017Z,3.60
2018-04-30T00:18:12.438Z,3.87
2018-04-30T00:20:39.949Z,4.20
2018-04-30T00:23:07.352Z,3.83
2018-04-30T00:25:34.758Z,4.50
2018-04-30T00:28:02.236Z,4.37
2018-04-30T00:30:29.701Z,3.47
2018-04-30T00:32:57.092Z,3.90
2018-04-30T00:35:24.478Z,4.30
2018-04-30T00:37:51.937Z,3.40
2018-04-30T00:40:20.399Z,3.53
2018-04-30T00:42:47.802Z,3.90
2018-04-30T00:45:15.173Z,4.20
2018-04-30T00:47:42.597Z,3.63
2018-04-30T00:50:09.998Z,4.47
2018-04-30T00:52:37.378Z,4.10
2018-04-30T00:55:04.842Z,3.83
2018-04-30T00:57:32.233Z,4.27
2018-04-30T00:59:59.667Z,4.70
2018-04-30T01:02:27.064Z,3.87
2018-04-30T01:04:54.480Z,4.33
2018-04-30T01:07:21.930Z,3.80
2018-04-30T01:09:49.333Z,4.33
2018-04-30T01:12:18.599Z,4.50
2018-04-30T01:14:45.985Z,4.53
2018-04-30T01:17:13.418Z,4.70
2018-04-30T01:19:40.818Z,4.87
2018-04-30T01:22:08.930Z,4.57
2018-04-30T01:24:36.317Z,5.00
2018-04-30T01:27:03.702Z,5.20
2018-04-30T01:29:31.084Z,4.60
2018-04-30T01:31:58.490Z,4.30
2018-04-30T01:34:25.892Z,5.20
2018-04-30T01:36:53.281Z,5.83
2018-04-30T01:39:20.705Z,5.40
2018-04-30T01:41:48.161Z,5.40
2018-04-30T01:44:15.552Z,4.83
2018-04-30T01:46:42.982Z,5.40
2018-04-30T01:49:10.429Z,5.17
2018-04-30T01:51:37.834Z,5.67
2018-04-30T01:54:05.221Z,5.47
2018-04-30T01:56:32.625Z,5.37
2018-04-30T01:59:00.053Z,5.93
2018-04-30T02:01:27.457Z,5.67
2018-04-30T02:03:54.867Z,5.80
2018-04-30T02:06:22.257Z,6.57
2018-04-30T02:08:49.640Z,6.17
2018-04-30T02:11:17.090Z,5.97
2018-04-30T02:13:44.511Z,6.20
2018-04-30T02:16:11.921Z,6.47
2018-04-30T02:18:39.316Z,6.77
2018-04-30T02:21:06.760Z,7.50
2018-04-30T02:23:34.205Z,6.27
2018-04-30T02:26:01.669Z,6.83
2018-04-30T02:28:29.142Z,7.10
2018-04-30T02:30:56.535Z,6.30
2018-04-30T02:33:23.921Z,6.80
2018-04-30T02:35:51.399Z,7.60
2018-04-30T02:38:19.279Z,7.37
2018-04-30T02:40:46.661Z,7.33
2018-04-30T02:43:14.067Z,6.80
2018-04-30T02:45:41.527Z,7.40
2018-04-30T02:48:08.985Z,7.20
2018-04-30T02:50:36.408Z,7.50
2018-04-30T02:53:03.814Z,7.33
2018-04-30T02:55:31.524Z,7.57
2018-04-30T02:57:58.975Z,7.43
2018-04-30T03:00:26.409Z,8.00
2018-04-30T03:02:53.882Z,8.60
2018-04-30T03:05:21.277Z,8.30
2018-04-30T03:07:48.692Z,8.70
2018-04-30T03:10:16.091Z,7.50
2018-04-30T03:12:44.413Z,7.77
2018-04-30T03:15:11.802Z,7.97
2018-04-30T03:17:39.209Z,9.70
2018-04-30T03:20:06.594Z,8.97
2018-04-30T03:22:34.360Z,8.10
2018-04-30T03:25:01.765Z,8.40
2018-04-30T03:27:29.186Z,8.67
2018-04-30T03:29:56.584Z,9.00
2018-04-30T03:32:23.986Z,8.80
2018-04-30T03:34:51.366Z,8.07
2018-04-30T03:37:18.790Z,8.23
2018-04-30T03:39:46.743Z,8.00
2018-04-30T03:42:14.156Z,8.00
2018-04-30T03:44:41.558Z,8.57
2018-04-30T03:47:08.985Z,9.00
2018-04-30T03:49:36.450Z,9.00
2018-04-30T03:52:03.763Z,8.47
2018-04-30T03:54:31.161Z,8.93
2018-04-30T03:56:58.607Z,8.97
2018-04-30T03:59:26.056Z,8.47
2018-04-30T04:02:05.485Z,9.00
2018-04-30T04:04:44.574Z,8.17
2018-04-30T04:07:11.979Z,9.60
2018-04-30T04:09:39.433Z,8.77
2018-04-30T04:12:06.833Z,9.70
2018-04-30T04:14:34.255Z,8.77
2018-04-30T04:17:01.641Z,9.50
2018-04-30T04:19:29.037Z,9.20
2018-04-30T04:21:56.416Z,9.57
2018-04-30T04:24:23.816Z,8.93
2018-04-30T04:26:51.202Z,8.73
2018-04-30T04:29:18.684Z,9.60
2018-04-30T04:31:46.138Z,9.60
2018-04-30T04:34:13.538Z,9.90
2018-04-30T04:36:40.949Z,9.60
2018-04-30T04:39:08.341Z,9.40
2018-04-30T04:41:35.849Z,10.23
2018-04-30T04:44:03.158Z,9.00
2018-04-30T04:46:30.568Z,9.73
2018-04-30T04:48:57.960Z,9.97
2018-04-30T04:51:25.381Z,11.07
2018-04-30T04:53:52.785Z,9.20
2018-04-30T04:56:20.202Z,10.53
2018-04-30T04:58:47.648Z,10.37
2018-04-30T05:01:15.045Z,11.40
2018-04-30T05:03:42.477Z,10.70
2018-04-30T05:06:09.870Z,10.20
2018-04-30T05:08:37.298Z,11.03
2018-04-30T05:11:04.701Z,10.70
2018-04-30T05:13:32.116Z,10.80
2018-04-30T05:15:59.558Z,11.27
2018-04-30T05:18:26.953Z,10.10
2018-04-30T05:20:54.409Z,10.90
2018-04-30T05:23:21.812Z,9.63
2018-04-30T05:25:49.213Z,11.60
2018-04-30T05:28:16.604Z,10.30
2018-04-30T05:30:44.054Z,11.17
2018-04-30T05:33:11.549Z,9.20
2018-04-30T05:35:38.959Z,10.73
2018-04-30T05:38:06.461Z,9.70
2018-04-30T05:40:33.853Z,10.10
2018-04-30T05:43:01.905Z,9.87
2018-04-30T05:45:29.291Z,10.40
2018-04-30T05:47:56.765Z,10.70
2018-04-30T05:50:24.076Z,9.43
2018-04-30T05:52:51.483Z,11.03
2018-04-30T05:55:19.105Z,10.87
2018-04-30T05:57:46.476Z,10.47
2018-04-30T06:00:13.870Z,10.10
2018-04-30T06:02:41.370Z,11.30
2018-04-30T06:05:08.760Z,11.20
2018-04-30T06:07:36.228Z,11.17
2018-04-30T06:10:03.625Z,11.67
2018-04-30T06:12:31.899Z,11.60
2018-04-30T06:14:59.293Z,10.47
2018-04-30T06:17:26.815Z,11.10
2018-04-30T06:19:54.260Z,11.47
2018-04-30T06:22:21.646Z,10.40
2018-04-30T06:24:49.043Z,11.17
2018-04-30T06:27:16.505Z,9.73
2018-04-30T06:29:43.907Z,10.50
2018-04-30T06:32:11.297Z,10.10
2018-04-30T06:34:38.699Z,9.93
2018-04-30T06:37:06.089Z,10.30
2018-04-30T06:39:33.481Z,9.67
2018-04-30T06:42:00.891Z,9.63
2018-04-30T06:44:28.305Z,10.30
2018-04-30T06:46:55.784Z,10.30
2018-04-30T06:49:23.186Z,11.47
2018-04-30T06:51:50.588Z,10.30
2018-04-30T06:54:17.977Z,9.73
2018-04-30T06:56:45.360Z,9.50
2018-04-30T06:59:12.761Z,9.47
2018-04-30T07:01:40.153Z,9.20
2018-04-30T07:04:07.568Z,9.33
2018-04-30T07:06:35.014Z,9.80
2018-04-30T07:09:02.489Z,11.10
2018-04-30T07:11:29.801Z,10.07
2018-04-30T07:13:57.295Z,9.07
2018-04-30T07:16:24.676Z,8.60
2018-04-30T07:18:52.093Z,8.47
2018-04-30T07:21:19.485Z,8.43
2018-04-30T07:23:46.879Z,9.30
2018-04-30T07:26:14.261Z,8.77
2018-04-30T07:28:41.720Z,8.83
2018-04-30T07:31:09.109Z,8.93
2018-04-30T07:33:36.509Z,9.03
2018-04-30T07:36:03.980Z,9.63
2018-04-30T07:38:31.455Z,10.10
2018-04-30T07:40:58.860Z,10.80
2018-04-30T07:43:26.257Z,10.80
2018-04-30T07:45:53.737Z,11.50
2018-04-30T07:48:21.134Z,11.30
2018-04-30T07:50:48.530Z,12.53
2018-04-30T07:53:15.928Z,12.30
2018-04-30T07:55:43.353Z,12.23
2018-04-30T07:58:10.749Z,11.50
2018-04-30T08:00:38.168Z,13.57
2018-04-30T08:03:05.691Z,12.27
2018-04-30T08:05:33.034Z,11.23
2018-04-30T08:08:00.499Z,11.00
2018-04-30T08:10:27.825Z,11.47
2018-04-30T08:12:55.216Z,10.50
2018-04-30T08:15:22.633Z,11.03
2018-04-30T08:17:50.061Z,10.83
2018-04-30T08:20:17.459Z,10.70
2018-04-30T08:22:44.853Z,11.27
2018-04-30T08:25:12.388Z,11.83
2018-04-30T08:27:39.774Z,11.80
2018-04-30T08:30:07.181Z,12.67
2018-04-30T08:32:34.628Z,12.40
2018-04-30T08:35:02.032Z,12.37
2018-04-30T08:37:29.444Z,13.40
2018-04-30T08:39:56.852Z,13.60
2018-04-30T08:42:24.270Z,13.83
2018-04-30T08:44:51.675Z,13.30
2018-04-30T08:47:19.064Z,13.23
2018-04-30T08:49:46.541Z,14.00
2018-04-30T08:52:13.983Z,14.03
2018-04-30T08:54:41.442Z,14.37
2018-04-30T08:57:08.841Z,14.93
2018-04-30T08:59:36.313Z,14.67
2018-04-30T09:02:03.704Z,14.30
2018-04-30T09:04:31.116Z,13.33
2018-04-30T09:06:58.565Z,14.53
2018-04-30T09:09:25.954Z,14.00
2018-04-30T09:11:53.365Z,13.27
2018-04-30T09:14:20.777Z,14.83
2018-04-30T09:16:48.169Z,13.77
2018-04-30T09:19:15.560Z,13.40
2018-04-30T09:21:42.961Z,13.50
2018-04-30T09:24:11.074Z,15.57
2018-04-30T09:26:38.511Z,15.80
2018-04-30T09:29:05.998Z,14.23
2018-04-30T09:31:33.381Z,15.57
2018-04-30T09:34:00.848Z,12.80
2018-04-30T09:36:28.238Z,11.77
2018-04-30T09:38:55.625Z,7.30
2018-04-30T09:41:23.074Z,6.50
2018-04-30T09:43:50.460Z,4.07
2018-04-30T09:46:17.869Z,5.20
2018-04-30T09:48:45.374Z,5.30
2018-04-30T09:51:12.856Z,4.83
2018-04-30T09:53:40.287Z,6.50
2018-04-30T09:56:07.676Z,5.93
2018-04-30T09:58:35.062Z,5.70
2018-04-30T10:01:02.611Z,5.30
2018-04-30T10:03:30.013Z,5.10
2018-04-30T10:05:57.413Z,4.57
2018-04-30T10:08:24.810Z,4.33
2018-04-30T10:10:52.213Z,5.13
2018-04-30T10:13:19.609Z,4.50
2018-04-30T10:15:46.997Z,4.30
2018-04-30T10:18:14.409Z,5.00
2018-04-30T10:20:41.819Z,4.43
2018-04-30T10:23:09.200Z,5.20
2018-04-30T10:25:36.636Z,4.40
2018-04-30T10:28:04.018Z,4.60
2018-04-30T10:30:31.425Z,5.30
2018-04-30T10:32:58.820Z,3.80
2018-04-30T10:35:26.220Z,4.23
2018-04-30T10:37:53.655Z,3.97
2018-04-30T10:40:21.040Z,3.63
2018-04-30T10:42:48.417Z,3.50
2018-04-30T10:45:15.861Z,3.07
2018-04-30T10:47:43.262Z,3.07
2018-04-30T10:50:10.669Z,2.70
2018-04-30T10:52:38.073Z,1.90
2018-04-30T10:55:05.966Z,2.10
2018-04-30T10:57:33.397Z,1.73
2018-04-30T11:00:00.809Z,1.53
2018-04-30T11:02:28.269Z,1.67
2018-04-30T11:04:55.725Z,1.40
2018-04-30T11:07:23.113Z,1.93
2018-04-30T11:09:50.519Z,1.47
2018-04-30T11:12:18.045Z,1.73
2018-04-30T11:14:45.404Z,1.30
2018-04-30T11:17:12.841Z,1.97
2018-04-30T11:19:40.231Z,1.50
2018-04-30T11:22:07.612Z,1.10
2018-04-30T11:24:35.000Z,0.60
2018-04-30T11:27:02.445Z,0.67
2018-04-30T11:29:29.857Z,0.60
2018-04-30T11:31:57.316Z,0.60
2018-04-30T11:34:25.321Z,0.63
2018-04-30T11:36:52.760Z,0.60
2018-04-30T11:39:20.149Z,0.60
2018-04-30T11:41:47.559Z,0.80
2018-04-30T11:44:14.944Z,0.70
2018-04-30T11:46:42.338Z,0.80
2018-04-30T11:49:09.710Z,0.70
2018-04-30T11:51:37.725Z,0.70
2018-04-30T11:54:05.173Z,1.10
2018-04-30T11:56:32.568Z,0.97
2018-04-30T11:58:59.985Z,0.80
2018-04-30T12:01:27.385Z,1.00
2018-04-30T12:03:54.854Z,0.93
2018-04-30T12:06:22.193Z,1.00
2018-04-30T12:08:49.577Z,1.63
2018-04-30T12:11:16.965Z,0.90
2018-04-30T12:13:44.381Z,1.00
2018-04-30T12:16:11.773Z,1.27
2018-04-30T12:18:39.156Z,1.73
2018-04-30T12:21:06.552Z,0.80
2018-04-30T12:23:33.986Z,1.30
2018-04-30T12:26:01.377Z,1.00
2018-04-30T12:28:28.796Z,1.10
2018-04-30T12:30:56.208Z,1.07
2018-04-30T12:33:23.705Z,0.97
2018-04-30T12:35:51.049Z,1.20
2018-04-30T12:38:18.438Z,1.07
2018-04-30T12:40:45.829Z,1.10
2018-04-30T12:43:13.205Z,1.50
2018-04-30T12:45:40.613Z,1.17
2018-04-30T12:48:08.024Z,1.30
2018-04-30T12:50:35.513Z,1.23
2018-04-30T12:53:02.901Z,1.10
2018-04-30T12:55:30.306Z,1.00
2018-04-30T12:57:57.689Z,1.13
2018-04-30T13:00:25.132Z,1.20
2018-04-30T13:02:52.521Z,1.20
2018-04-30T13:05:19.937Z,0.90
2018-04-30T13:07:47.319Z,0.97
2018-04-30T13:10:14.716Z,1.20
2018-04-30T13:12:42.103Z,0.93
2018-04-30T13:15:09.501Z,1.27
2018-04-30T13:17:36.881Z,1.00
2018-04-30T13:20:04.367Z,1.10
2018-04-30T13:22:31.744Z,1.27
2018-04-30T13:24:59.204Z,1.47
2018-04-30T13:27:26.592Z,0.97
2018-04-30T13:29:54.105Z,1.00
2018-04-30T13:32:21.573Z,1.23
2018-04-30T13:34:48.964Z,1.00
2018-04-30T13:37:16.431Z,0.80
2018-04-30T13:39:43.752Z,1.40
2018-04-30T13:42:11.128Z,1.20
2018-04-30T13:44:38.553Z,1.00
2018-04-30T13:47:05.965Z,1.30
2018-04-30T13:49:33.836Z,0.90
2018-04-30T13:52:01.718Z,0.80
2018-04-30T13:54:29.107Z,1.00
2018-04-30T13:56:56.508Z,1.00
2018-04-30T13:59:23.948Z,0.80
2018-04-30T14:01:51.372Z,0.90
2018-04-30T14:04:18.841Z,0.90
2018-04-30T14:06:46.227Z,1.10
2018-04-30T14:09:13.645Z,1.00
2018-04-30T14:11:41.089Z,0.90
2018-04-30T14:14:08.464Z,0.67
2018-04-30T14:16:35.927Z,2.47
2018-04-30T14:19:03.312Z,0.80
2018-04-30T14:21:30.817Z,1.50
2018-04-30T14:23:58.105Z,0.70
2018-04-30T14:26:25.503Z,0.97
2018-04-30T14:28:52.885Z,0.70
2018-04-30T14:31:20.334Z,0.70
2018-04-30T14:33:47.796Z,0.70
2018-04-30T14:36:15.185Z,1.00
2018-04-30T14:38:42.581Z,1.03
2018-04-30T14:41:10.785Z,0.70
2018-04-30T14:43:38.159Z,0.70
2018-04-30T14:46:05.545Z,0.70
2018-04-30T14:48:32.953Z,0.80
2018-04-30T14:51:00.341Z,0.97
2018-04-30T14:53:27.755Z,0.73
2018-04-30T14:55:55.186Z,0.70
2018-04-30T14:58:22.600Z,0.77
2018-04-30T15:00:49.994Z,0.80
2018-04-30T15:03:17.382Z,0.80
2018-04-30T15:05:44.857Z,1.30
2018-04-30T15:08:12.243Z,0.80
2018-04-30T15:10:39.652Z,0.80
2018-04-30T15:13:07.113Z,0.80
2018-04-30T15:15:34.515Z,1.00
2018-04-30T15:18:01.916Z,0.70
2018-04-30T15:20:29.313Z,0.80
2018-04-30T15:22:56.692Z,1.00
2018-04-30T15:25:24.093Z,0.70
2018-04-30T15:27:51.549Z,1.00
2018-04-30T15:30:18.937Z,1.03
2018-04-30T15:32:46.378Z,1.13
2018-04-30T15:35:13.816Z,0.80
2018-04-30T15:37:41.277Z,0.80
2018-04-30T15:40:08.687Z,0.90
2018-04-30T15:42:36.097Z,0.70
2018-04-30T15:45:03.500Z,0.80
2018-04-30T15:47:30.909Z,0.93
2018-04-30T15:49:58.376Z,0.80
2018-04-30T15:52:26.117Z,0.80
2018-04-30T15:54:53.630Z,0.80
2018-04-30T15:57:21.030Z,0.97
2018-04-30T15:59:49.958Z,0.90
2018-04-30T16:02:19.945Z,1.43
2018-04-30T16:04:47.376Z,0.70
2018-04-30T16:07:14.769Z,0.80
2018-04-30T16:09:42.261Z,1.00
2018-04-30T16:12:09.684Z,0.93
2018-04-30T16:14:37.160Z,0.73
2018-04-30T16:17:04.549Z,0.70
2018-04-30T16:19:31.948Z,0.70
2018-04-30T16:21:59.405Z,0.70
2018-04-30T16:24:26.832Z,1.00
2018-04-30T16:26:54.240Z,0.70
2018-04-30T16:29:21.648Z,0.83
2018-04-30T16:31:49.100Z,0.80
2018-04-30T16:34:16.509Z,0.60
2018-04-30T16:36:43.923Z,0.60
2018-04-30T16:39:11.309Z,0.73
2018-04-30T16:41:38.692Z,0.70
2018-04-30T16:44:06.190Z,0.70
2018-04-30T16:46:33.593Z,0.90
2018-04-30T16:49:01.003Z,0.77
2018-04-30T16:51:28.388Z,0.70
2018-04-30T16:53:55.821Z,0.90
2018-04-30T16:56:23.253Z,0.70
2018-04-30T16:58:50.632Z,0.70
2018-04-30T17:01:18.096Z,0.70
2018-04-30T17:03:45.533Z,0.80
2018-04-30T17:06:12.898Z,0.70
2018-04-30T17:08:40.305Z,0.70
2018-04-30T17:11:07.693Z,1.00
2018-04-30T17:13:35.090Z,0.70
2018-04-30T17:16:02.580Z,0.90
2018-04-30T17:18:30.020Z,0.83
2018-04-30T17:20:57.461Z,0.60
2018-04-30T17:23:24.852Z,0.67
2018-04-30T17:25:52.241Z,0.90
2018-04-30T17:28:19.971Z,0.60
2018-04-30T17:30:47.356Z,0.70
2018-04-30T17:33:14.877Z,0.70
2018-04-30T17:35:42.257Z,1.07
2018-04-30T17:38:09.665Z,0.80
2018-04-30T17:40:37.134Z,0.90
2018-04-30T17:43:04.541Z,0.67
2018-04-30T17:45:31.962Z,0.67
2018-04-30T17:47:59.443Z,0.70
2018-04-30T17:50:26.888Z,0.70
2018-04-30T17:52:54.371Z,0.80
2018-04-30T17:55:21.680Z,0.70
2018-04-30T17:57:49.165Z,0.80
2018-04-30T18:00:16.625Z,1.07
2018-04-30T18:02:44.013Z,0.70
2018-04-30T18:05:11.417Z,0.70
2018-04-30T18:07:38.813Z,0.60
2018-04-30T18:10:06.210Z,0.73
2018-04-30T18:12:33.609Z,0.70
2018-04-30T18:15:00.989Z,0.60
2018-04-30T18:17:28.410Z,1.07
2018-04-30T18:19:55.788Z,1.00
2018-04-30T18:22:23.192Z,0.60
2018-04-30T18:24:50.574Z,0.70
2018-04-30T18:27:17.985Z,0.80
2018-04-30T18:29:45.409Z,0.70
2018-04-30T18:32:12.797Z,0.80
2018-04-30T18:34:40.184Z,0.70
2018-04-30T18:37:07.569Z,0.97
2018-04-30T18:39:35.000Z,0.70
2018-04-30T18:42:02.400Z,0.70
2018-04-30T18:44:29.819Z,0.80
2018-04-30T18:46:57.181Z,0.80
2018-04-30T18:49:24.564Z,0.97
2018-04-30T18:51:51.951Z,0.93
2018-04-30T18:54:19.350Z,0.80
2018-04-30T18:56:46.801Z,0.80
2018-04-30T18:59:14.292Z,1.00
2018-04-30T19:01:41.737Z,0.83
2018-04-30T19:04:09.114Z,0.70
2018-04-30T19:06:36.496Z,1.00
2018-04-30T19:09:03.880Z,0.80
2018-04-30T19:11:31.353Z,0.87
2018-04-30T19:13:58.757Z,0.90
2018-04-30T19:16:26.136Z,0.87
2018-04-30T19:18:53.544Z,1.10
2018-04-30T19:21:20.969Z,1.00
2018-04-30T19:23:48.371Z,0.90
2018-04-30T19:26:15.761Z,0.90
2018-04-30T19:28:43.181Z,1.03
2018-04-30T19:31:10.598Z,0.90
2018-04-30T19:33:38.073Z,0.83
2018-04-30T19:36:05.501Z,0.70
2018-04-30T19:38:32.886Z,0.83
2018-04-30T19:41:00.292Z,0.83
2018-04-30T19:43:27.692Z,0.87
2018-04-30T19:45:55.082Z,0.90
2018-04-30T19:48:22.528Z,0.67
2018-04-30T19:50:49.918Z,1.00
2018-04-30T19:53:17.339Z,0.80
2018-04-30T19:55:44.788Z,0.70
2018-04-30T19:58:12.257Z,0.70
2018-04-30T20:00:39.660Z,0.60
2018-04-30T20:03:07.052Z,0.60
2018-04-30T20:05:34.441Z,0.70
2018-04-30T20:08:01.951Z,0.60
2018-04-30T20:10:29.341Z,0.63
2018-04-30T20:12:56.734Z,0.73
2018-04-30T20:15:24.108Z,0.70
2018-04-30T20:17:51.497Z,0.70
2018-04-30T20:20:18.924Z,0.60
2018-04-30T20:22:46.283Z,0.63
2018-04-30T20:25:13.661Z,0.50
2018-04-30T20:27:41.057Z,0.60
2018-04-30T20:30:08.434Z,0.60
2018-04-30T20:32:35.868Z,0.70
2018-04-30T20:35:03.293Z,0.70
2018-04-30T20:37:30.717Z,0.70
2018-04-30T20:39:58.124Z,0.60
2018-04-30T20:42:25.524Z,0.80
2018-04-30T20:44:52.905Z,0.57
2018-04-30T20:47:20.332Z,0.53
2018-04-30T20:49:47.721Z,0.70
2018-04-30T20:52:15.118Z,0.70
2018-04-30T20:54:42.494Z,0.60
2018-04-30T20:57:09.886Z,0.90
2018-04-30T20:59:37.316Z,0.60
2018-04-30T21:02:04.708Z,0.60
2018-04-30T21:04:32.097Z,0.63
2018-04-30T21:06:59.504Z,1.00
2018-04-30T21:09:26.928Z,0.63
2018-04-30T21:11:54.313Z,0.60
2018-04-30T21:14:21.701Z,0.60
2018-04-30T21:16:49.089Z,0.70
2018-04-30T21:19:16.484Z,0.80
2018-04-30T21:21:43.916Z,0.93
2018-04-30T21:24:11.413Z,0.77
2018-04-30T21:26:38.761Z,0.80
2018-04-30T21:29:06.152Z,1.30
2018-04-30T21:31:33.542Z,1.40
2018-04-30T21:34:00.925Z,0.70
2018-04-30T21:36:28.308Z,0.80
2018-04-30T21:38:55.705Z,1.27
2018-04-30T21:41:23.092Z,0.80
2018-04-30T21:43:50.577Z,0.70
2018-04-30T21:46:18.046Z,0.70
2018-04-30T21:48:45.499Z,1.00
2018-04-30T21:51:12.945Z,1.07
2018-04-30T21:53:40.445Z,0.80
2018-04-30T21:56:07.859Z,0.70
2018-04-30T21:58:35.257Z,0.80
2018-04-30T22:01:02.701Z,0.70
2018-04-30T22:03:30.118Z,0.87
2018-04-30T22:05:57.580Z,0.90
2018-04-30T22:08:24.987Z,0.87
2018-04-30T22:10:52.373Z,1.00
2018-04-30T22:13:19.977Z,0.80
2018-04-30T22:15:47.361Z,0.70
2018-04-30T22:18:14.772Z,0.90
2018-04-30T22:20:42.168Z,0.83
2018-04-30T22:23:09.553Z,0.77
2018-04-30T22:25:36.948Z,0.60
2018-04-30T22:28:04.361Z,0.70
2018-04-30T22:30:31.749Z,0.70
2018-04-30T22:32:59.144Z,1.20
2018-04-30T22:35:26.564Z,0.80
2018-04-30T22:37:53.979Z,0.70
2018-04-30T22:40:21.372Z,0.77
2018-04-30T22:42:48.776Z,0.87
2018-04-30T22:45:16.165Z,0.73
2018-04-30T22:47:43.653Z,1.00
2018-04-30T22:50:11.041Z,0.70
2018-04-30T22:52:38.460Z,0.63
2018-04-30T22:55:05.928Z,0.70
2018-04-30T22:57:33.360Z,0.80
2018-04-30T23:00:00.829Z,0.70
2018-04-30T23:02:28.218Z,0.60
2018-04-30T23:04:55.625Z,0.70
2018-04-30T23:07:23.002Z,0.70
2018-04-30T23:09:50.500Z,0.53
2018-04-30T23:12:17.877Z,0.83
2018-04-30T23:14:45.304Z,0.60
2018-04-30T23:17:12.689Z,0.60
2018-04-30T23:19:40.089Z,0.70
2018-04-30T23:22:07.470Z,0.70
2018-04-30T23:24:34.907Z,0.90
2018-04-30T23:27:02.286Z,0.70
2018-04-30T23:29:29.708Z,0.70
2018-04-30T23:31:57.097Z,0.63
2018-04-30T23:34:24.566Z,0.70
2018-04-30T23:36:52.091Z,0.70
2018-04-30T23:39:19.478Z,0.63
2018-04-30T23:41:46.921Z,0.60
2018-04-30T23:44:14.396Z,0.90
2018-04-30T23:46:41.774Z,0.70
2018-04-30T23:49:09.203Z,0.70
2018-04-30T23:51:36.645Z,1.00
2018-04-30T23:54:04.037Z,0.70
2018-04-30T23:56:31.416Z,0.80
2018-04-30T23:58:58.909Z,0.70
